Wayana — PE5639 — position and weather

sailwx.info

Track history (hours):
 
Tides and Currents Weather Stations Pressure Air Temp Water Temp Dewpoint Dewpoint Depression Visibility Wind Speed Wind Dir Waves Ship Positions

Wayana

Last reported at 2016-Sep-25 12:32 UTC. Time now 2016-Sep-28 23:59 UTC.
Position N 52°55' E 005°03'.

Length 14 m.

Type: Sailing vessel. MMSI: 244020670.

Date/timePositionNaut miles runAvg speedWind from/ knotsBaromVisibWave heightAir tempDewpointWater temp
2016-Sep-25 12:32N 52°55' E 005°03'0 0.0
2016-Sep-25 11:32N 52°55' E 005°03'0 0.0
2016-Sep-25 10:32N 52°55' E 005°03'4 4.2
2016-Sep-25 09:33N 52°52' E 005°06'11 5.5
2016-Sep-25 07:33N 52°44' E 005°18'2 0.6
2016-Sep-25 04:33N 52°42' E 005°18'0 0.0
2016-Sep-25 00:33N 52°42' E 005°18'0 0.0
2016-Sep-24 22:33N 52°42' E 005°18'0 0.0
2016-Sep-24 21:33N 52°42' E 005°18'0 0.0
2016-Sep-24 19:33N 52°42' E 005°18'0 0.0
2016-Sep-24 18:33N 52°42' E 005°18'0 0.0
2016-Sep-24 17:33N 52°42' E 005°18'0 0.0
2016-Sep-24 16:33N 52°42' E 005°18'0 0.0
2016-Sep-24 14:33N 52°42' E 005°18'0 0.0
2016-Sep-24 12:33N 52°42' E 005°18'0 0.0
2016-Sep-24 10:33N 52°42' E 005°18'0 0.0
2016-Sep-24 09:33N 52°42' E 005°18'0 0.0
2016-Sep-24 03:33N 52°42' E 005°18'0 0.0
2016-Sep-24 02:33N 52°42' E 005°18'0 0.0
2016-Sep-24 01:33N 52°42' E 005°18'0 0.0
2016-Sep-24 00:33N 52°42' E 005°18'0 0.0
2016-Sep-23 19:33N 52°42' E 005°18'0 0.0
2016-Sep-23 17:33N 52°42' E 005°18'0 0.0
2016-Sep-23 16:33N 52°42' E 005°18'0 0.0
2016-Sep-23 15:33N 52°42' E 005°18'0 0.0
2016-Sep-23 13:33N 52°42' E 005°18'21 5.2
2016-Sep-23 09:33N 53°02' E 005°21'2 0.6
2016-Sep-23 06:32N 53°03' E 005°24'0 0.0
2016-Sep-23 04:32N 53°03' E 005°24'0 0.0
2016-Sep-23 03:32N 53°03' E 005°24'0 0.0
2016-Sep-23 02:32N 53°03' E 005°24'0 0.0
2016-Sep-23 01:32N 53°03' E 005°24'0 0.0
2016-Sep-23 00:32N 53°03' E 005°24'0 0.0
2016-Sep-22 23:32N 53°03' E 005°24'0 0.0
2016-Sep-22 20:32N 53°03' E 005°24'0 0.0
2016-Sep-22 12:33N 53°03' E 005°24'  
Track history (hours):
 
Tides and Currents Weather Stations Pressure Air Temp Water Temp Dewpoint Dewpoint Depression Visibility Wind Speed Wind Dir Waves Ship Positions

Wayana

Last reported at 2016-Sep-25 12:32 UTC. Time now 2016-Sep-28 23:59 UTC.
Position N 52°55' E 005°03'.

Length 14 m.

Type: Sailing vessel. MMSI: 244020670.

Date/timePositionNaut miles runAvg speedWind from/ knotsBaromVisibWave heightAir tempDewpointWater temp
2016-Sep-25 12:32N 52°55' E 005°03'0 0.0
2016-Sep-25 11:32N 52°55' E 005°03'0 0.0
2016-Sep-25 10:32N 52°55' E 005°03'4 4.2
2016-Sep-25 09:33N 52°52' E 005°06'11 5.5
2016-Sep-25 07:33N 52°44' E 005°18'2 0.6
2016-Sep-25 04:33N 52°42' E 005°18'0 0.0
2016-Sep-25 00:33N 52°42' E 005°18'0 0.0
2016-Sep-24 22:33N 52°42' E 005°18'0 0.0
2016-Sep-24 21:33N 52°42' E 005°18'0 0.0
2016-Sep-24 19:33N 52°42' E 005°18'0 0.0
2016-Sep-24 18:33N 52°42' E 005°18'0 0.0
2016-Sep-24 17:33N 52°42' E 005°18'0 0.0
2016-Sep-24 16:33N 52°42' E 005°18'0 0.0
2016-Sep-24 14:33N 52°42' E 005°18'0 0.0
2016-Sep-24 12:33N 52°42' E 005°18'0 0.0
2016-Sep-24 10:33N 52°42' E 005°18'0 0.0
2016-Sep-24 09:33N 52°42' E 005°18'0 0.0
2016-Sep-24 03:33N 52°42' E 005°18'0 0.0
2016-Sep-24 02:33N 52°42' E 005°18'0 0.0
2016-Sep-24 01:33N 52°42' E 005°18'0 0.0
2016-Sep-24 00:33N 52°42' E 005°18'0 0.0
2016-Sep-23 19:33N 52°42' E 005°18'0 0.0
2016-Sep-23 17:33N 52°42' E 005°18'0 0.0
2016-Sep-23 16:33N 52°42' E 005°18'0 0.0
2016-Sep-23 15:33N 52°42' E 005°18'0 0.0
2016-Sep-23 13:33N 52°42' E 005°18'21 5.2
2016-Sep-23 09:33N 53°02' E 005°21'2 0.6
2016-Sep-23 06:32N 53°03' E 005°24'0 0.0
2016-Sep-23 04:32N 53°03' E 005°24'0 0.0
2016-Sep-23 03:32N 53°03' E 005°24'0 0.0
2016-Sep-23 02:32N 53°03' E 005°24'0 0.0
2016-Sep-23 01:32N 53°03' E 005°24'0 0.0
2016-Sep-23 00:32N 53°03' E 005°24'0 0.0
2016-Sep-22 23:32N 53°03' E 005°24'0 0.0
2016-Sep-22 20:32N 53°03' E 005°24'0 0.0
2016-Sep-22 12:33N 53°03' E 005°24'  

Dump ship's entire track history